Tolna, Pennsylvania
Current Conditions -  °F | °C
As of 4:53 PM on Sunday 21 Dec 2014 (Local Time) from KTHV Reporting Station
Clear Clear  
Wind Chill: 26°   Ceiling: Unl
Heat Index: 32°   Visibility: 10mi
Dew Point: 22°   Wind: 6mph
Humidity: 66%   Direction: 30°NNE
Pressure: 30.3"   Gusts: NA
Location:  39.7456°N, 76.6794°W
Report Text: KTHV 212153Z AUTO 03005KT 10SM CLR 00/M06 A3030 RMK AO2 SLP268 T00001056
Loading
Personal Weather Stations






























Interactive Weather Map New forecast layout! Learn more

10-Day Weather Forecast

Advertisements
Track Severe Weather on mobile